createdAt,value
2018-03-08T00:00:58.321Z,5.98
2018-03-08T00:01:58.623Z,6.02
2018-03-08T00:02:58.060Z,6.02
2018-03-08T00:03:58.359Z,6.02
2018-03-08T00:04:58.087Z,5.97
2018-03-08T00:05:58.377Z,5.97
2018-03-08T00:06:58.716Z,5.99
2018-03-08T00:07:58.115Z,6.04
2018-03-08T00:08:58.408Z,6.02
2018-03-08T00:09:58.415Z,5.98
2018-03-08T00:10:58.146Z,6.01
2018-03-08T00:11:58.167Z,6.05
2018-03-08T00:12:58.166Z,6.04
2018-03-08T00:13:58.180Z,5.93
2018-03-08T00:14:58.186Z,5.94
2018-03-08T00:15:58.480Z,6.04
2018-03-08T00:16:58.500Z,5.99
2018-03-08T00:17:58.782Z,5.99
2018-03-08T00:18:58.792Z,6.04
2018-03-08T00:19:58.802Z,5.98
2018-03-08T00:20:58.820Z,5.94
2018-03-08T00:21:58.276Z,6.04
2018-03-08T00:22:58.836Z,6.04
2018-03-08T00:23:58.566Z,6.01
2018-03-08T00:24:58.575Z,5.98
2018-03-08T00:25:58.587Z,5.99
2018-03-08T00:26:58.881Z,5.99
2018-03-08T00:27:58.890Z,5.98
2018-03-08T00:28:58.336Z,5.97
2018-03-08T00:29:58.627Z,6.04
2018-03-08T00:30:58.645Z,6.02
2018-03-08T00:31:58.930Z,6.05
2018-03-08T00:32:58.693Z,5.93
2018-03-08T00:33:58.951Z,6.02
2018-03-08T00:34:58.971Z,6.02
2018-03-08T00:35:59.020Z,6.09
2018-03-08T00:36:59.038Z,6.05
2018-03-08T00:37:58.718Z,6.08
2018-03-08T00:38:58.728Z,5.94
2018-03-08T00:39:58.451Z,6.02
2018-03-08T00:40:59.034Z,5.94
2018-03-08T00:41:59.035Z,6.07
2018-03-08T00:42:59.086Z,6.07
2018-03-08T00:43:59.061Z,5.97
2018-03-08T00:44:58.791Z,6.02
2018-03-08T00:45:58.802Z,5.94
2018-03-08T00:46:58.811Z,6.07
2018-03-08T00:47:59.104Z,6.02
2018-03-08T00:48:58.829Z,6.07
2018-03-08T00:49:59.125Z,6.07
2018-03-08T00:50:58.848Z,5.99
2018-03-08T00:51:59.145Z,6.02
2018-03-08T00:52:58.586Z,5.94
2018-03-08T00:53:58.597Z,6.09
2018-03-08T00:54:59.180Z,5.99
2018-03-08T00:55:58.617Z,6.02
2018-03-08T00:56:58.632Z,6.01
2018-03-08T00:57:59.205Z,6.02
2018-03-08T00:58:59.219Z,5.99
2018-03-08T00:59:58.658Z,6.01
2018-03-08T01:00:58.671Z,5.98
2018-03-08T01:01:58.963Z,5.98
2018-03-08T01:02:59.257Z,5.99
2018-03-08T01:03:58.984Z,6.01
2018-03-08T01:04:58.996Z,6.08
2018-03-08T01:05:59.007Z,6.07
2018-03-08T01:06:59.297Z,6.01
2018-03-08T01:07:59.030Z,6.07
2018-03-08T01:08:59.317Z,6.05
2018-03-08T01:09:59.047Z,6.04
2018-03-08T01:10:59.058Z,6.09
2018-03-08T01:11:58.834Z,6.07
2018-03-08T01:12:58.803Z,6.07
2018-03-08T01:13:59.094Z,6.01
2018-03-08T01:14:59.412Z,6.02
2018-03-08T01:15:59.109Z,6.04
2018-03-08T01:16:59.406Z,6.02
2018-03-08T01:17:59.133Z,6.05
2018-03-08T01:18:59.437Z,6.04
2018-03-08T01:19:59.152Z,6.07
2018-03-08T01:20:59.450Z,6.04
2018-03-08T01:21:59.458Z,6.01
2018-03-08T01:22:59.472Z,6.07
2018-03-08T01:23:59.476Z,6.07
2018-03-08T01:24:59.216Z,6.08
2018-03-08T01:25:59.506Z,6.05
2018-03-08T01:26:59.529Z,6.14
2018-03-08T01:27:58.955Z,6.09
2018-03-08T01:28:59.538Z,6.08
2018-03-08T01:29:58.976Z,6.14
2018-03-08T01:30:59.265Z,6.17
2018-03-08T01:31:58.996Z,6.09
2018-03-08T01:32:59.574Z,6.07
2018-03-08T01:33:59.298Z,6.16
2018-03-08T01:34:59.594Z,6.17
2018-03-08T01:35:59.324Z,6.16
2018-03-08T01:36:59.612Z,6.11
2018-03-08T01:37:59.624Z,6.11
2018-03-08T01:38:59.632Z,6.11
2018-03-08T01:39:59.401Z,6.19
2018-03-08T01:40:59.656Z,6.09
2018-03-08T01:41:59.703Z,6.04
2018-03-08T01:42:59.681Z,6.05
2018-03-08T01:43:59.404Z,6.09
2018-03-08T01:44:59.413Z,6.16
2018-03-08T01:45:59.712Z,6.16
2018-03-08T01:46:59.435Z,6.16
2018-03-08T01:47:59.447Z,6.2
2018-03-08T01:48:59.736Z,6.12
2018-03-08T01:49:59.467Z,6.14
2018-03-08T01:50:59.768Z,6.2
2018-03-08T01:51:59.210Z,6.11
2018-03-08T01:52:59.598Z,6.07
2018-03-08T01:53:59.794Z,6.09
2018-03-08T01:54:59.806Z,6.19
2018-03-08T01:55:59.532Z,6.16
2018-03-08T01:56:59.566Z,6.11
2018-03-08T01:57:59.555Z,6.16
2018-03-08T01:58:59.562Z,6.19
2018-03-08T01:59:59.290Z,6.11
2018-03-08T02:00:59.592Z,6.17
2018-03-08T02:01:59.880Z,6.09
2018-03-08T02:02:59.601Z,6.14
2018-03-08T02:03:59.615Z,6.07
2018-03-08T02:04:59.919Z,6.11
2018-03-08T02:05:59.638Z,6.05
2018-03-08T02:06:59.928Z,6.05
2018-03-08T02:07:59.706Z,6.05
2018-03-08T02:08:59.386Z,6.14
2018-03-08T02:09:59.974Z,6.11
2018-03-08T02:10:59.686Z,6.07
2018-03-08T02:11:59.697Z,6.07
2018-03-08T02:12:59.757Z,6.04
2018-03-08T02:13:59.718Z,5.98
2018-03-08T02:14:59.732Z,6.05
2018-03-08T02:15:59.743Z,6.01
2018-03-08T02:16:59.757Z,5.99
2018-03-08T02:18:00.097Z,6.01
2018-03-08T02:19:00.052Z,5.98
2018-03-08T02:19:59.809Z,6.04
2018-03-08T02:21:00.077Z,6.09
2018-03-08T02:22:00.082Z,6.09
2018-03-08T02:22:59.816Z,5.94
2018-03-08T02:23:59.823Z,5.98
2018-03-08T02:25:00.113Z,6.02
2018-03-08T02:25:59.851Z,6.02
2018-03-08T02:26:59.572Z,6.07
2018-03-08T02:27:59.868Z,6.07
2018-03-08T02:29:00.202Z,6.04
2018-03-08T02:29:59.609Z,6.01
2018-03-08T02:30:59.898Z,6.08
2018-03-08T02:31:59.635Z,5.99
2018-03-08T02:32:59.930Z,6.05
2018-03-08T02:33:59.931Z,6.08
2018-03-08T02:34:59.940Z,6.09
2018-03-08T02:36:00.237Z,6.04
2018-03-08T02:37:00.246Z,5.98
2018-03-08T02:38:00.307Z,6.08
2018-03-08T02:38:59.703Z,6.04
2018-03-08T02:40:00.279Z,6.09
2018-03-08T02:40:59.999Z,6.09
2018-03-08T02:42:00.017Z,6.01
2018-03-08T02:43:00.312Z,6.07
2018-03-08T02:44:00.329Z,6.01
2018-03-08T02:45:00.338Z,6.16
2018-03-08T02:46:00.340Z,6.07
2018-03-08T02:47:00.066Z,6.07
2018-03-08T02:48:00.079Z,6.08
2018-03-08T02:49:00.090Z,6.09
2018-03-08T02:50:00.099Z,6.08
2018-03-08T02:51:00.115Z,6.02
2018-03-08T02:52:00.123Z,6.02
2018-03-08T02:53:00.132Z,6.08
2018-03-08T02:54:00.437Z,6.07
2018-03-08T02:55:00.430Z,6.11
2018-03-08T02:56:00.175Z,6.08
2018-03-08T02:57:00.459Z,6.09
2018-03-08T02:58:00.473Z,6.11
2018-03-08T02:59:00.482Z,6.08
2018-03-08T03:00:00.488Z,6.17
2018-03-08T03:01:00.494Z,6.07
2018-03-08T03:02:00.236Z,6.09
2018-03-08T03:03:00.241Z,6.12
2018-03-08T03:04:00.246Z,6.09
2018-03-08T03:05:00.547Z,6.12
2018-03-08T03:06:00.557Z,6.08
2018-03-08T03:07:00.556Z,6.12
2018-03-08T03:08:00.293Z,6.11
2018-03-08T03:09:00.293Z,6.16
2018-03-08T03:10:00.884Z,6.14
2018-03-08T03:11:00.611Z,6.11
2018-03-08T03:12:00.049Z,6.12
2018-03-08T03:13:00.672Z,6.09
2018-03-08T03:14:00.642Z,6.12
2018-03-08T03:15:00.642Z,6.16
2018-03-08T03:16:00.368Z,6.19
2018-03-08T03:17:00.663Z,6.09
2018-03-08T03:18:00.446Z,6.11
2018-03-08T03:19:00.689Z,6.11
2018-03-08T03:20:00.129Z,6.16
2018-03-08T03:21:00.425Z,6.11
2018-03-08T03:22:00.147Z,6.14
2018-03-08T03:23:00.544Z,6.16
2018-03-08T03:24:00.737Z,6.09
2018-03-08T03:25:00.782Z,6.16
2018-03-08T03:26:00.476Z,6.17
2018-03-08T03:27:00.765Z,6.17
2018-03-08T03:28:00.777Z,6.09
2018-03-08T03:29:00.506Z,6.11
2018-03-08T03:30:00.515Z,6.09
2018-03-08T03:31:00.830Z,6.09
2018-03-08T03:32:00.560Z,6.14
2018-03-08T03:33:00.552Z,6.17
2018-03-08T03:34:00.837Z,6.16
2018-03-08T03:35:00.572Z,6.08
2018-03-08T03:36:00.584Z,6.14
2018-03-08T03:37:00.587Z,6.16
2018-03-08T03:38:00.941Z,6.19
2018-03-08T03:39:00.614Z,6.12
2018-03-08T03:40:00.907Z,6.17
2018-03-08T03:41:00.632Z,6.17
2018-03-08T03:42:00.673Z,6.12
2018-03-08T03:43:00.935Z,6.17
2018-03-08T03:44:00.954Z,6.17
2018-03-08T03:45:00.960Z,6.17
2018-03-08T03:46:00.985Z,6.16
2018-03-08T03:47:00.973Z,6.19
2018-03-08T03:48:00.713Z,6.17
2018-03-08T03:49:00.719Z,6.17
2018-03-08T03:50:00.727Z,6.19
2018-03-08T03:51:00.736Z,6.28
2018-03-08T03:52:01.033Z,6.2
2018-03-08T03:53:01.087Z,6.14
2018-03-08T03:54:00.772Z,6.14
2018-03-08T03:55:01.068Z,6.17
2018-03-08T03:56:00.508Z,6.24
2018-03-08T03:57:01.084Z,6.26
2018-03-08T03:58:00.810Z,6.22
2018-03-08T03:59:01.105Z,6.26
2018-03-08T04:00:01.112Z,6.26
2018-03-08T04:01:01.125Z,6.26
2018-03-08T04:02:00.573Z,6.22
2018-03-08T04:03:00.860Z,6.26
2018-03-08T04:04:00.608Z,6.28
2018-03-08T04:05:00.882Z,6.26
2018-03-08T04:06:00.893Z,6.2
2018-03-08T04:07:01.185Z,6.2
2018-03-08T04:08:00.923Z,6.26
2018-03-08T04:09:01.212Z,6.24
2018-03-08T04:10:01.230Z,6.24
2018-03-08T04:11:00.945Z,6.26
2018-03-08T04:12:00.959Z,6.24
2018-03-08T04:13:01.015Z,6.22
2018-03-08T04:14:01.264Z,6.27
2018-03-08T04:15:01.269Z,6.31
2018-03-08T04:16:01.011Z,6.28
2018-03-08T04:17:01.010Z,6.24
2018-03-08T04:18:00.740Z,6.33
2018-03-08T04:19:01.030Z,6.28
2018-03-08T04:20:00.768Z,6.31
2018-03-08T04:21:01.058Z,6.28
2018-03-08T04:22:01.346Z,6.17
2018-03-08T04:23:01.375Z,6.31
2018-03-08T04:24:01.087Z,6.26
2018-03-08T04:25:01.095Z,6.24
2018-03-08T04:26:01.395Z,6.26
2018-03-08T04:27:01.407Z,6.26
2018-03-08T04:28:01.123Z,6.24
2018-03-08T04:29:01.431Z,6.27
2018-03-08T04:30:01.155Z,6.28
2018-03-08T04:31:01.156Z,6.27
2018-03-08T04:32:01.172Z,6.31
2018-03-08T04:33:01.456Z,6.24
2018-03-08T04:34:01.477Z,6.2
2018-03-08T04:35:01.683Z,6.27
2018-03-08T04:36:01.689Z,6.26
2018-03-08T04:37:00.937Z,6.27
2018-03-08T04:38:01.561Z,6.28
2018-03-08T04:39:01.245Z,6.31
2018-03-08T04:40:01.537Z,6.26
2018-03-08T04:41:01.266Z,6.33
2018-03-08T04:42:00.992Z,6.24
2018-03-08T04:43:01.001Z,6.35
2018-03-08T04:44:01.297Z,6.28
2018-03-08T04:45:01.022Z,6.24
2018-03-08T04:46:01.608Z,6.27
2018-03-08T04:47:01.616Z,6.28
2018-03-08T04:48:01.337Z,6.31
2018-03-08T04:49:01.678Z,6.3
2018-03-08T04:50:01.639Z,6.26
2018-03-08T04:51:01.371Z,6.3
2018-03-08T04:52:01.667Z,6.35
2018-03-08T04:53:01.443Z,6.27
2018-03-08T04:54:01.404Z,6.33
2018-03-08T04:55:01.422Z,6.35
2018-03-08T04:56:01.425Z,6.28
2018-03-08T04:57:01.435Z,6.24
2018-03-08T04:58:01.730Z,6.24
2018-03-08T04:59:01.457Z,6.26
2018-03-08T05:00:01.486Z,6.31
2018-03-08T05:01:01.476Z,6.24
2018-03-08T05:02:01.484Z,6.22
2018-03-08T05:03:01.510Z,6.3
2018-03-08T05:04:01.511Z,6.33
2018-03-08T05:05:01.799Z,6.24
2018-03-08T05:06:01.252Z,6.2
2018-03-08T05:07:01.834Z,6.31
2018-03-08T05:08:01.607Z,6.28
2018-03-08T05:09:01.565Z,6.22
2018-03-08T05:10:01.571Z,6.28
2018-03-08T05:11:01.584Z,6.26
2018-03-08T05:12:01.870Z,6.3
2018-03-08T05:13:01.885Z,6.22
2018-03-08T05:14:01.897Z,6.22
2018-03-08T05:15:01.913Z,6.24
2018-03-08T05:16:01.637Z,6.17
2018-03-08T05:17:01.645Z,6.3
2018-03-08T05:18:01.939Z,6.2
2018-03-08T05:19:01.952Z,6.28
2018-03-08T05:20:01.968Z,6.28
2018-03-08T05:21:01.974Z,6.28
2018-03-08T05:22:01.987Z,6.2
2018-03-08T05:23:01.715Z,6.28
2018-03-08T05:24:01.999Z,6.26
2018-03-08T05:25:02.014Z,6.27
2018-03-08T05:26:02.021Z,6.19
2018-03-08T05:27:01.750Z,6.3
2018-03-08T05:28:01.764Z,6.2
2018-03-08T05:29:01.773Z,6.2
2018-03-08T05:30:02.066Z,6.2
2018-03-08T05:31:01.792Z,6.26
2018-03-08T05:32:02.087Z,6.26
2018-03-08T05:33:02.095Z,6.27
2018-03-08T05:34:01.830Z,6.28
2018-03-08T05:35:01.854Z,6.26
2018-03-08T05:36:01.848Z,6.28
2018-03-08T05:37:01.577Z,6.22
2018-03-08T05:38:01.872Z,6.24
2018-03-08T05:39:02.162Z,6.27
2018-03-08T05:40:02.254Z,6.22
2018-03-08T05:41:01.899Z,6.22
2018-03-08T05:42:01.922Z,6.26
2018-03-08T05:43:01.922Z,6.28
2018-03-08T05:44:01.930Z,6.3
2018-03-08T05:45:02.226Z,6.24
2018-03-08T05:46:01.953Z,6.2
2018-03-08T05:47:01.988Z,6.22
2018-03-08T05:48:02.264Z,6.26
2018-03-08T05:49:02.272Z,6.26
2018-03-08T05:50:01.710Z,6.22
2018-03-08T05:51:02.015Z,6.26
2018-03-08T05:52:02.016Z,6.26
2018-03-08T05:53:02.314Z,6.33
2018-03-08T05:54:01.754Z,6.24
2018-03-08T05:55:02.046Z,6.26
2018-03-08T05:56:02.063Z,6.3
2018-03-08T05:57:02.354Z,6.26
2018-03-08T05:58:02.363Z,6.27
2018-03-08T05:59:02.090Z,6.24
2018-03-08T06:00:02.103Z,6.3
2018-03-08T06:01:02.394Z,6.24
2018-03-08T06:02:02.126Z,6.28
2018-03-08T06:03:02.436Z,6.36
2018-03-08T06:04:01.861Z,6.3
2018-03-08T06:05:02.151Z,6.27
2018-03-08T06:06:02.163Z,6.33
2018-03-08T06:07:02.461Z,6.33
2018-03-08T06:08:02.184Z,6.28
2018-03-08T06:09:02.483Z,6.3
2018-03-08T06:10:02.485Z,6.31
2018-03-08T06:11:02.501Z,6.33
2018-03-08T06:12:02.521Z,6.31
2018-03-08T06:13:02.520Z,6.39
2018-03-08T06:14:02.536Z,6.36
2018-03-08T06:15:02.544Z,6.33
2018-03-08T06:16:02.296Z,6.38
2018-03-08T06:17:02.564Z,6.35
2018-03-08T06:18:02.294Z,6.31
2018-03-08T06:19:02.681Z,6.39
2018-03-08T06:20:02.596Z,6.33
2018-03-08T06:21:02.614Z,6.3
2018-03-08T06:22:02.618Z,6.36
2018-03-08T06:23:02.633Z,6.36
2018-03-08T06:24:02.379Z,6.41
2018-03-08T06:25:02.373Z,6.49
2018-03-08T06:26:02.660Z,6.42
2018-03-08T06:27:02.386Z,6.31
2018-03-08T06:28:02.398Z,6.49
2018-03-08T06:29:02.704Z,6.35
2018-03-08T06:30:02.438Z,6.49
2018-03-08T06:31:02.723Z,6.48
2018-03-08T06:32:02.737Z,6.45
2018-03-08T06:33:02.451Z,6.46
2018-03-08T06:34:02.459Z,6.49
2018-03-08T06:35:02.493Z,6.48
2018-03-08T06:36:02.484Z,6.57
2018-03-08T06:37:02.503Z,6.48
2018-03-08T06:38:02.307Z,6.45
2018-03-08T06:39:02.943Z,6.48
2018-03-08T06:40:02.806Z,6.54
2018-03-08T06:41:02.537Z,6.57
2018-03-08T06:42:02.547Z,6.51
2018-03-08T06:43:02.277Z,6.49
2018-03-08T06:44:02.923Z,6.56
2018-03-08T06:45:02.859Z,6.51
2018-03-08T06:46:02.320Z,6.54
2018-03-08T06:47:02.894Z,6.54
2018-03-08T06:48:02.617Z,6.57
2018-03-08T06:49:02.906Z,6.57
2018-03-08T06:50:02.642Z,6.54
2018-03-08T06:51:02.368Z,6.48
2018-03-08T06:52:02.822Z,6.57
2018-03-08T06:53:02.669Z,6.59
2018-03-08T06:54:02.766Z,6.49
2018-03-08T06:55:02.688Z,6.51
2018-03-08T06:56:02.695Z,6.52
2018-03-08T06:57:02.426Z,6.52
2018-03-08T06:58:03.019Z,6.6
2018-03-08T06:59:02.730Z,6.57
2018-03-08T07:00:03.047Z,6.59
2018-03-08T07:01:02.749Z,6.54
2018-03-08T07:02:02.787Z,6.57
2018-03-08T07:03:02.769Z,6.59
2018-03-08T07:04:03.065Z,6.49
2018-03-08T07:05:02.796Z,6.6
2018-03-08T07:06:02.523Z,6.6
2018-03-08T07:07:03.107Z,6.62
2018-03-08T07:08:02.851Z,6.54
2018-03-08T07:09:02.892Z,6.62
2018-03-08T07:10:02.591Z,6.64
2018-03-08T07:11:03.145Z,6.64
2018-03-08T07:12:03.160Z,6.6
2018-03-08T07:13:03.174Z,6.59
2018-03-08T07:14:02.915Z,6.62
2018-03-08T07:15:02.906Z,6.72
2018-03-08T07:16:02.928Z,6.66
2018-03-08T07:17:02.927Z,6.6
2018-03-08T07:18:02.949Z,6.59
2018-03-08T07:19:03.234Z,6.64
2018-03-08T07:20:03.248Z,6.72
2018-03-08T07:21:03.708Z,6.72
2018-03-08T07:22:02.978Z,6.72
2018-03-08T07:23:02.990Z,6.7
2018-03-08T07:24:03.020Z,6.72
2018-03-08T07:25:03.291Z,6.72
2018-03-08T07:26:03.021Z,6.7
2018-03-08T07:27:03.031Z,6.75
2018-03-08T07:28:03.069Z,6.77
2018-03-08T07:29:03.339Z,6.74
2018-03-08T07:30:03.079Z,6.75
2018-03-08T07:31:03.104Z,6.79
2018-03-08T07:32:03.113Z,6.82
2018-03-08T07:33:03.100Z,6.78
2018-03-08T07:34:03.398Z,6.85
2018-03-08T07:35:03.170Z,6.88
2018-03-08T07:36:03.431Z,6.89
2018-03-08T07:37:03.444Z,6.88
2018-03-08T07:38:02.893Z,6.88
2018-03-08T07:39:03.451Z,6.89
2018-03-08T07:40:03.176Z,6.93
2018-03-08T07:41:03.480Z,6.88
2018-03-08T07:42:02.915Z,6.93
2018-03-08T07:43:03.491Z,6.88
2018-03-08T07:44:03.527Z,6.93
2018-03-08T07:45:03.648Z,6.89
2018-03-08T07:46:03.528Z,7.03
2018-03-08T07:47:03.540Z,7.03
2018-03-08T07:48:03.276Z,7.03
2018-03-08T07:49:03.277Z,7
2018-03-08T07:50:03.599Z,7.05
2018-03-08T07:51:03.583Z,6.99
2018-03-08T07:52:03.606Z,7.03
2018-03-08T07:53:03.605Z,7.1
2018-03-08T07:54:03.339Z,7.13
2018-03-08T07:55:03.642Z,7.13
2018-03-08T07:56:03.408Z,7.14
2018-03-08T07:57:03.083Z,7.15
2018-03-08T07:58:03.674Z,7.23
2018-03-08T07:59:03.669Z,7.21
2018-03-08T08:00:03.418Z,7.17
2018-03-08T08:01:03.695Z,7.14
2018-03-08T08:02:03.704Z,7.18
2018-03-08T08:03:03.717Z,7.15
2018-03-08T08:04:03.729Z,7.2
2018-03-08T08:05:03.738Z,7.23
2018-03-08T08:06:03.764Z,7.18
2018-03-08T08:07:03.809Z,7.29
2018-03-08T08:08:03.780Z,7.32
2018-03-08T08:09:03.503Z,7.35
2018-03-08T08:10:03.512Z,7.32
2018-03-08T08:11:03.821Z,7.31
2018-03-08T08:12:03.535Z,7.33
2018-03-08T08:13:03.546Z,7.33
2018-03-08T08:14:03.866Z,7.4
2018-03-08T08:15:03.620Z,7.35
2018-03-08T08:16:03.882Z,7.4
2018-03-08T08:17:03.875Z,7.42
2018-03-08T08:18:03.334Z,7.4
2018-03-08T08:19:03.622Z,7.45
2018-03-08T08:20:03.625Z,7.47
2018-03-08T08:21:04.087Z,7.45
2018-03-08T08:22:03.965Z,7.5
2018-03-08T08:23:03.659Z,7.5
2018-03-08T08:24:03.958Z,7.51
2018-03-08T08:25:03.972Z,7.51
2018-03-08T08:26:03.695Z,7.47
2018-03-08T08:27:03.990Z,7.54
2018-03-08T08:28:03.432Z,7.54
2018-03-08T08:29:04.016Z,7.57
2018-03-08T08:30:03.766Z,7.45
2018-03-08T08:31:04.035Z,7.63
2018-03-08T08:32:04.048Z,7.66
2018-03-08T08:33:03.776Z,7.69
2018-03-08T08:34:03.788Z,7.66
2018-03-08T08:35:03.800Z,7.63
2018-03-08T08:36:03.813Z,7.56
2018-03-08T08:37:04.104Z,7.66
2018-03-08T08:38:03.837Z,7.61
2018-03-08T08:39:04.139Z,7.73
2018-03-08T08:40:03.859Z,7.77
2018-03-08T08:41:04.152Z,7.73
2018-03-08T08:42:03.879Z,7.8
2018-03-08T08:43:03.895Z,7.79
2018-03-08T08:44:03.908Z,7.77
2018-03-08T08:45:04.247Z,7.79
2018-03-08T08:46:03.927Z,7.95
2018-03-08T08:47:04.220Z,7.93
2018-03-08T08:48:04.255Z,7.98
2018-03-08T08:49:03.959Z,7.95
2018-03-08T08:50:04.261Z,7.98
2018-03-08T08:51:03.991Z,8.01
2018-03-08T08:52:04.277Z,8.03
2018-03-08T08:53:04.006Z,8.16
2018-03-08T08:54:04.315Z,8.1
2018-03-08T08:55:04.316Z,8.1
2018-03-08T08:56:04.326Z,8.13
2018-03-08T08:57:04.059Z,8.13
2018-03-08T08:58:04.353Z,8.23
2018-03-08T08:59:04.368Z,8.16
2018-03-08T09:00:04.391Z,8.18
2018-03-08T09:01:04.104Z,8.18
2018-03-08T09:02:04.137Z,8.18
2018-03-08T09:03:04.130Z,8.28
2018-03-08T09:04:03.857Z,8.19
2018-03-08T09:05:04.148Z,8.2
2018-03-08T09:06:04.171Z,8.18
2018-03-08T09:07:03.892Z,8.19
2018-03-08T09:08:03.904Z,8.19
2018-03-08T09:09:04.485Z,8.23
2018-03-08T09:10:04.210Z,8.23
2018-03-08T09:11:04.224Z,8.18
2018-03-08T09:12:04.234Z,8.24
2018-03-08T09:13:04.532Z,8.19
2018-03-08T09:14:04.258Z,8.18
2018-03-08T09:15:04.554Z,8.24
2018-03-08T09:16:04.565Z,8.19
2018-03-08T09:17:04.578Z,8.16
2018-03-08T09:18:04.305Z,8.24
2018-03-08T09:19:04.613Z,8.26
2018-03-08T09:20:04.639Z,8.26
2018-03-08T09:21:04.718Z,8.26
2018-03-08T09:22:04.362Z,8.2
2018-03-08T09:23:04.661Z,8.2
2018-03-08T09:24:04.662Z,8.3
2018-03-08T09:25:04.677Z,8.31
2018-03-08T09:26:04.733Z,8.36
2018-03-08T09:27:04.415Z,8.33
2018-03-08T09:28:04.705Z,8.34
2018-03-08T09:29:04.716Z,8.34
2018-03-08T09:30:04.450Z,8.34
2018-03-08T09:31:04.464Z,8.34
2018-03-08T09:32:04.763Z,8.33
2018-03-08T09:33:04.491Z,8.3
2018-03-08T09:34:04.784Z,8.3
2018-03-08T09:35:04.795Z,8.36
2018-03-08T09:36:04.811Z,8.33
2018-03-08T09:37:04.815Z,8.3
2018-03-08T09:38:04.543Z,8.34
2018-03-08T09:39:04.555Z,8.3
2018-03-08T09:40:04.568Z,8.41
2018-03-08T09:41:04.863Z,8.34
2018-03-08T09:42:04.596Z,8.34
2018-03-08T09:43:04.608Z,8.45
2018-03-08T09:44:04.615Z,8.46
2018-03-08T09:45:04.637Z,8.48
2018-03-08T09:46:04.982Z,8.44
2018-03-08T09:47:04.663Z,8.46
2018-03-08T09:48:04.671Z,8.52
2018-03-08T09:49:04.676Z,8.48
2018-03-08T09:50:04.978Z,8.51
2018-03-08T09:51:04.756Z,8.52
2018-03-08T09:52:05.000Z,8.52
2018-03-08T09:53:05.014Z,8.61
2018-03-08T09:54:04.754Z,8.61
2018-03-08T09:55:05.044Z,8.58
2018-03-08T09:56:04.765Z,8.73
2018-03-08T09:57:04.779Z,8.76
2018-03-08T09:58:05.079Z,8.67
2018-03-08T09:59:04.953Z,8.76
2018-03-08T10:00:04.811Z,8.78
2018-03-08T10:01:05.107Z,8.79
2018-03-08T10:02:05.119Z,8.79
2018-03-08T10:03:04.576Z,8.79
2018-03-08T10:04:05.154Z,8.78
2018-03-08T10:05:04.873Z,8.81
2018-03-08T10:06:04.608Z,8.91
2018-03-08T10:07:04.896Z,9.02
2018-03-08T10:08:05.195Z,8.99
2018-03-08T10:09:04.928Z,9.02
2018-03-08T10:10:05.215Z,9.08
2018-03-08T10:11:04.951Z,9.06
2018-03-08T10:12:05.248Z,9.11
2018-03-08T10:13:05.252Z,9.06
2018-03-08T10:14:05.273Z,9.14
2018-03-08T10:15:05.291Z,9.14
2018-03-08T10:16:05.295Z,9.18
2018-03-08T10:17:05.303Z,9.21
2018-03-08T10:18:05.033Z,9.28
2018-03-08T10:19:05.331Z,9.31
2018-03-08T10:20:04.779Z,9.25
2018-03-08T10:21:05.068Z,9.26
2018-03-08T10:22:05.374Z,9.29
2018-03-08T10:23:05.379Z,9.37
2018-03-08T10:24:05.104Z,9.34
2018-03-08T10:25:05.405Z,9.47
2018-03-08T10:26:05.131Z,9.48
2018-03-08T10:27:05.207Z,9.43
2018-03-08T10:28:05.507Z,9.48
2018-03-08T10:29:05.575Z,9.59
2018-03-08T10:30:05.464Z,9.59
2018-03-08T10:31:05.191Z,9.56
2018-03-08T10:32:04.922Z,9.54
2018-03-08T10:33:04.932Z,9.61
2018-03-08T10:34:05.513Z,9.68
2018-03-08T10:35:05.241Z,9.64
2018-03-08T10:36:05.329Z,9.66
2018-03-08T10:37:05.545Z,9.73
2018-03-08T10:38:05.587Z,9.76
2018-03-08T10:40:05.586Z,9.66
2018-03-08T10:41:05.920Z,9.76
2018-03-08T10:42:05.350Z,9.8
2018-03-08T10:43:05.622Z,9.83
2018-03-08T10:44:05.661Z,9.83
2018-03-08T10:45:05.084Z,9.94
2018-03-08T10:46:05.664Z,9.91
2018-03-08T10:47:05.674Z,9.89
2018-03-08T10:48:05.120Z,9.97
2018-03-08T10:49:05.137Z,10.05
2018-03-08T10:50:05.454Z,10.1
2018-03-08T10:51:05.447Z,10.1
2018-03-08T10:52:05.172Z,10.13
2018-03-08T10:53:05.749Z,10.16
2018-03-08T10:54:05.216Z,10.17
2018-03-08T10:55:05.210Z,10.22
2018-03-08T10:56:05.784Z,10.26
2018-03-08T10:57:05.521Z,10.28
2018-03-08T10:58:05.280Z,10.34
2018-03-08T10:59:05.546Z,10.34
2018-03-08T11:00:05.744Z,10.41
2018-03-08T11:01:05.388Z,10.37
2018-03-08T11:02:05.870Z,10.38
2018-03-08T11:03:06.795Z,10.48
2018-03-08T11:04:05.357Z,10.56
2018-03-08T11:05:05.911Z,10.59
2018-03-08T11:06:05.649Z,10.69
2018-03-08T11:07:05.648Z,10.69
2018-03-08T11:08:05.971Z,10.76
2018-03-08T11:09:05.676Z,10.78
2018-03-08T11:10:05.696Z,10.76
2018-03-08T11:11:05.418Z,10.82
2018-03-08T11:12:05.787Z,10.75
2018-03-08T11:13:06.022Z,10.89
2018-03-08T11:14:05.482Z,10.86
2018-03-08T11:15:05.473Z,10.87
2018-03-08T11:16:06.119Z,10.93
2018-03-08T11:17:06.068Z,10.93
2018-03-08T11:18:05.796Z,10.97
2018-03-08T11:19:06.099Z,11.04
2018-03-08T11:20:05.843Z,11
2018-03-08T11:21:05.617Z,11.02
2018-03-08T11:22:06.137Z,11.08
2018-03-08T11:23:06.145Z,11.1
2018-03-08T11:24:06.160Z,11.17
2018-03-08T11:25:06.187Z,11.25
2018-03-08T11:26:05.625Z,11.23
2018-03-08T11:27:05.915Z,11.35
2018-03-08T11:28:06.213Z,11.4
2018-03-08T11:29:06.226Z,11.47
2018-03-08T11:30:06.266Z,11.44
2018-03-08T11:31:05.973Z,11.65
2018-03-08T11:32:06.271Z,11.65
2018-03-08T11:33:06.291Z,11.65
2018-03-08T11:34:06.012Z,11.72
2018-03-08T11:35:06.314Z,11.81
2018-03-08T11:36:06.384Z,11.72
2018-03-08T11:37:06.052Z,11.75
2018-03-08T11:38:06.356Z,11.83
2018-03-08T11:39:07.761Z,11.84
2018-03-08T11:40:07.439Z,11.9
2018-03-08T11:41:06.815Z,11.9
2018-03-08T11:42:06.409Z,12.04
2018-03-08T11:43:06.141Z,12.1
2018-03-08T11:44:06.369Z,12.06
2018-03-08T11:45:06.453Z,12.13
2018-03-08T11:46:06.646Z,12.13
2018-03-08T11:47:06.888Z,12.22
2018-03-08T11:48:06.220Z,12.22
2018-03-08T11:49:06.507Z,12.22
2018-03-08T11:50:06.236Z,12.24
2018-03-08T11:51:06.248Z,12.13
2018-03-08T11:52:06.550Z,12.18
2018-03-08T11:53:06.287Z,12.17
2018-03-08T11:54:06.576Z,12.13
2018-03-08T11:55:06.588Z,12.13
2018-03-08T11:56:06.328Z,12.13
2018-03-08T11:57:06.618Z,12.12
2018-03-08T11:58:06.644Z,12.12
2018-03-08T11:59:06.364Z,12.18
2018-03-08T12:00:06.668Z,12.2
2018-03-08T12:01:06.396Z,12.25
2018-03-08T12:02:06.698Z,12.22
2018-03-08T12:03:06.340Z,12.28
2018-03-08T12:04:06.441Z,12.24
2018-03-08T12:05:06.452Z,12.31
2018-03-08T12:06:06.755Z,12.25
2018-03-08T12:07:06.480Z,12.4
2018-03-08T12:08:06.778Z,12.39
2018-03-08T12:09:06.799Z,12.36
2018-03-08T12:10:06.828Z,12.4
2018-03-08T12:11:06.964Z,12.32
2018-03-08T12:12:06.550Z,12.43
2018-03-08T12:13:06.570Z,12.45
2018-03-08T12:14:06.865Z,12.42
2018-03-08T12:15:06.596Z,12.42
2018-03-08T12:16:06.901Z,12.42
2018-03-08T12:17:06.799Z,12.46
2018-03-08T12:18:06.993Z,12.46
2018-03-08T12:19:06.658Z,12.45
2018-03-08T12:20:06.976Z,12.49
2018-03-08T12:21:06.402Z,12.53
2018-03-08T12:22:06.698Z,12.55
2018-03-08T12:23:06.997Z,12.5
2018-03-08T12:24:07.016Z,12.64
2018-03-08T12:25:07.025Z,12.64
2018-03-08T12:26:06.768Z,12.62
2018-03-08T12:27:07.056Z,12.62
2018-03-08T12:28:07.137Z,12.65
2018-03-08T12:29:07.107Z,12.67
2018-03-08T12:30:06.817Z,12.68
2018-03-08T12:31:07.138Z,12.76
2018-03-08T12:32:06.853Z,12.82
2018-03-08T12:33:07.146Z,12.75
2018-03-08T12:34:07.160Z,12.82
2018-03-08T12:35:06.893Z,12.9
2018-03-08T12:36:07.192Z,12.93
2018-03-08T12:37:07.219Z,13.03
2018-03-08T12:38:07.229Z,13.01
2018-03-08T12:39:07.242Z,13.04
2018-03-08T12:40:07.265Z,13.08
2018-03-08T12:41:07.268Z,13.12
2018-03-08T12:42:07.280Z,13.09
2018-03-08T12:43:07.017Z,13.13
2018-03-08T12:44:07.034Z,13.15
2018-03-08T12:45:07.042Z,13.13
2018-03-08T12:46:07.060Z,13.13
2018-03-08T12:47:07.357Z,13.23
2018-03-08T12:48:07.088Z,13.19
2018-03-08T12:49:07.388Z,13.19
2018-03-08T12:50:06.836Z,13.19
2018-03-08T12:51:07.135Z,13.22
2018-03-08T12:52:07.483Z,13.23
2018-03-08T12:53:07.454Z,13.2
2018-03-08T12:54:07.461Z,13.23
2018-03-08T12:55:06.913Z,13.2
2018-03-08T12:56:07.265Z,13.37
2018-03-08T12:57:07.225Z,13.33
2018-03-08T12:58:07.522Z,13.25
2018-03-08T12:59:07.545Z,13.35
2018-03-08T13:00:07.275Z,13.22
2018-03-08T13:01:07.575Z,13.31
2018-03-08T13:02:07.640Z,13.33
2018-03-08T13:03:07.321Z,13.31
2018-03-08T13:04:07.337Z,13.31
2018-03-08T13:05:07.072Z,13.47
2018-03-08T13:06:07.648Z,13.49
2018-03-08T13:07:07.434Z,13.59
2018-03-08T13:08:07.684Z,13.53
2018-03-08T13:09:07.698Z,13.6
2018-03-08T13:10:07.434Z,13.6
2018-03-08T13:11:07.444Z,13.65
2018-03-08T13:12:07.178Z,13.68
2018-03-08T13:13:07.762Z,13.63
2018-03-08T13:14:07.493Z,13.79
2018-03-08T13:15:07.797Z,13.83
2018-03-08T13:16:07.522Z,13.83
2018-03-08T13:17:07.540Z,13.75